Victoria, British Columbia

3:29 AM PDT on July 23, 2016 (GMT -0700)
Victoria International | | Change Station

Elev 62 ft 48.65 °N, 123.43 °W | Updated 29 minutes ago

Partly Cloudy
Partly Cloudy
61 °F
Feels Like 61 °F
N
10
Wind Variable Wind from WNW

Today
High -- | Low -- °F
--% Chance of Precip.
Yesterday
High -- | Low -- °F
Precip. -- in
Pressure 30.23 in
Visibility 30.0 miles
Clouds Few 4000 ft
Few 25000 ft
Dew Point 52 °F
Humidity 72%
Rainfall 0.00 in
Snow Depth Not available.
5:37 AM 9:02 PM
Waning Gibbous, 86% visible
METAR CYYJ 231000Z 29009KT 30SM FEW040 FEW250 16/11 A3022 RMK SC1CI1 CI TR SLP236
Pressure 30.23 in
Visibility 30.0 miles
Clouds Few 4000 ft
Few 25000 ft
Dew Point 52 °F
Humidity 72%
Rainfall 0.00 in
Snow Depth Not available.
5:37 AM 9:02 PM
Waning Gibbous, 86% visible
METAR CYYJ 231000Z 29009KT 30SM FEW040 FEW250 16/11 A3022 RMK SC1CI1 CI TR SLP236

10-Day Weather Forecast

Almanac

Astronomy

Jul. 23, 2016 Rise Set
Actual Time
Civil Twilight
Nautical Twilight
Astronomical Twilight
Moon
Length of Visible Light
Length of Day
Tomorrow will be .
, % of the Moon is Illuminated

Today's Extremes

Country Highs Country Lows

Community

WunderPhotos

Upload Photos

1,926,791 photos uploaded!

WunderBlog® & News

Nearby

Air Quality

  Air Quality AQ Index Pollutant
Not available.

Snow Depth

Station Depth Elevation

Earthquake Activity

City Distance Mag. Time & Date
Minimum magnitude displayed is 2.5.

Coastal Water Temperatures

Place Temperature

Stations

Nearby Weather Stations

Station Location Temp. Windchill Dew Point Humidity Wind Precip. Elev Updated Type
                   

Watches & Warnings

There are currently no watches in effect.